sensor_id;sensor_type;location;lat;lon;timestamp;temperature;humidity
27978;DHT22;15314;49.248;6.968;2023-04-03T00:00:03;5.70;95.70
27978;DHT22;15314;49.248;6.968;2023-04-03T00:01:05;5.70;96.10
27978;DHT22;15314;49.248;6.968;2023-04-03T00:02:06;5.70;95.80
27978;DHT22;15314;49.248;6.968;2023-04-03T00:03:07;5.70;95.80
27978;DHT22;15314;49.248;6.968;2023-04-03T00:04:07;5.90;96.10
27978;DHT22;15314;49.248;6.968;2023-04-03T00:05:08;5.80;95.50
27978;DHT22;15314;49.248;6.968;2023-04-03T00:06:10;5.70;95.60
27978;DHT22;15314;49.248;6.968;2023-04-03T00:07:11;5.70;95.30
27978;DHT22;15314;49.248;6.968;2023-04-03T00:08:13;5.70;95.20
27978;DHT22;15314;49.248;6.968;2023-04-03T00:09:13;5.70;95.30
27978;DHT22;15314;49.248;6.968;2023-04-03T00:10:14;5.70;95.40
27978;DHT22;15314;49.248;6.968;2023-04-03T00:11:16;5.60;95.40
27978;DHT22;15314;49.248;6.968;2023-04-03T00:12:17;5.60;95.10
27978;DHT22;15314;49.248;6.968;2023-04-03T00:13:17;5.50;94.90
27978;DHT22;15314;49.248;6.968;2023-04-03T00:14:18;5.50;95.30
27978;DHT22;15314;49.248;6.968;2023-04-03T00:15:19;5.50;95.30
27978;DHT22;15314;49.248;6.968;2023-04-03T00:16:20;5.60;95.30
27978;DHT22;15314;49.248;6.968;2023-04-03T00:17:21;5.60;95.30
27978;DHT22;15314;49.248;6.968;2023-04-03T00:18:22;5.60;95.10
27978;DHT22;15314;49.248;6.968;2023-04-03T00:19:23;5.60;95.00
27978;DHT22;15314;49.248;6.968;2023-04-03T00:20:24;5.60;95.30
27978;DHT22;15314;49.248;6.968;2023-04-03T00:21:25;5.50;94.90
27978;DHT22;15314;49.248;6.968;2023-04-03T00:22:26;5.60;94.80
27978;DHT22;15314;49.248;6.968;2023-04-03T00:23:28;5.60;95.00
27978;DHT22;15314;49.248;6.968;2023-04-03T00:24:29;5.60;94.40
27978;DHT22;15314;49.248;6.968;2023-04-03T00:25:30;5.50;94.60
27978;DHT22;15314;49.248;6.968;2023-04-03T00:26:30;5.50;94.70
27978;DHT22;15314;49.248;6.968;2023-04-03T00:27:31;5.40;94.20
27978;DHT22;15314;49.248;6.968;2023-04-03T00:28:32;5.40;94.20
27978;DHT22;15314;49.248;6.968;2023-04-03T00:29:32;5.40;94.70
27978;DHT22;15314;49.248;6.968;2023-04-03T00:30:33;5.30;94.70
27978;DHT22;15314;49.248;6.968;2023-04-03T00:31:34;5.30;94.70
27978;DHT22;15314;49.248;6.968;2023-04-03T00:32:35;5.40;94.70
27978;DHT22;15314;49.248;6.968;2023-04-03T00:33:36;5.30;94.60
27978;DHT22;15314;49.248;6.968;2023-04-03T00:34:37;5.30;94.50
27978;DHT22;15314;49.248;6.968;2023-04-03T00:35:37;5.30;94.30
27978;DHT22;15314;49.248;6.968;2023-04-03T00:36:38;5.20;93.70
27978;DHT22;15314;49.248;6.968;2023-04-03T00:37:39;5.20;94.40
27978;DHT22;15314;49.248;6.968;2023-04-03T00:38:40;5.20;94.30
27978;DHT22;15314;49.248;6.968;2023-04-03T00:39:40;5.20;94.20
27978;DHT22;15314;49.248;6.968;2023-04-03T00:40:43;5.10;94.20
27978;DHT22;15314;49.248;6.968;2023-04-03T00:41:44;5.10;93.70
27978;DHT22;15314;49.248;6.968;2023-04-03T00:42:47;5.10;94.10
27978;DHT22;15314;49.248;6.968;2023-04-03T00:43:48;5.10;94.10
27978;DHT22;15314;49.248;6.968;2023-04-03T00:45:57;5.00;93.90
27978;DHT22;15314;49.248;6.968;2023-04-03T00:46:58;5.00;94.20
27978;DHT22;15314;49.248;6.968;2023-04-03T00:47:59;5.00;93.60
27978;DHT22;15314;49.248;6.968;2023-04-03T00:49:01;4.90;93.50
27978;DHT22;15314;49.248;6.968;2023-04-03T00:50:02;4.90;94.00
27978;DHT22;15314;49.248;6.968;2023-04-03T00:51:05;5.00;94.20
27978;DHT22;15314;49.248;6.968;2023-04-03T00:52:09;5.00;94.00
27978;DHT22;15314;49.248;6.968;2023-04-03T00:53:18;5.00;94.00
27978;DHT22;15314;49.248;6.968;2023-04-03T00:54:21;5.00;94.00
27978;DHT22;15314;49.248;6.968;2023-04-03T00:55:22;5.10;94.10
27978;DHT22;15314;49.248;6.968;2023-04-03T00:56:25;5.10;94.30
27978;DHT22;15314;49.248;6.968;2023-04-03T00:57:27;5.20;94.80
27978;DHT22;15314;49.248;6.968;2023-04-03T00:58:49;5.20;93.90
27978;DHT22;15314;49.248;6.968;2023-04-03T00:59:55;5.20;93.90
27978;DHT22;15314;49.248;6.968;2023-04-03T01:00:58;5.20;94.00
27978;DHT22;15314;49.248;6.968;2023-04-03T01:01:59;5.20;93.50
27978;DHT22;15314;49.248;6.968;2023-04-03T01:03:00;5.10;93.80
27978;DHT22;15314;49.248;6.968;2023-04-03T01:04:02;5.10;93.50
27978;DHT22;15314;49.248;6.968;2023-04-03T01:05:04;5.10;93.60
27978;DHT22;15314;49.248;6.968;2023-04-03T01:06:05;5.10;93.90
27978;DHT22;15314;49.248;6.968;2023-04-03T01:07:12;5.10;94.10
27978;DHT22;15314;49.248;6.968;2023-04-03T01:08:14;5.10;93.60
27978;DHT22;15314;49.248;6.968;2023-04-03T01:09:15;5.20;93.70
27978;DHT22;15314;49.248;6.968;2023-04-03T01:10:17;5.00;93.70
27978;DHT22;15314;49.248;6.968;2023-04-03T01:11:19;5.00;93.60
27978;DHT22;15314;49.248;6.968;2023-04-03T01:13:32;5.00;93.60
27978;DHT22;15314;49.248;6.968;2023-04-03T01:14:33;4.90;93.60
27978;DHT22;15314;49.248;6.968;2023-04-03T01:15:34;4.90;93.80
27978;DHT22;15314;49.248;6.968;2023-04-03T01:16:35;4.80;93.60
27978;DHT22;15314;49.248;6.968;2023-04-03T01:17:46;4.80;93.80
27978;DHT22;15314;49.248;6.968;2023-04-03T01:18:47;4.70;94.30
27978;DHT22;15314;49.248;6.968;2023-04-03T01:19:57;4.60;94.40
27978;DHT22;15314;49.248;6.968;2023-04-03T01:22:25;4.50;94.50
27978;DHT22;15314;49.248;6.968;2023-04-03T01:24:33;4.50;94.60
27978;DHT22;15314;49.248;6.968;2023-04-03T01:25:36;4.50;94.60
27978;DHT22;15314;49.248;6.968;2023-04-03T01:26:37;4.40;94.80
27978;DHT22;15314;49.248;6.968;2023-04-03T01:27:38;4.40;94.60
27978;DHT22;15314;49.248;6.968;2023-04-03T01:28:38;4.30;94.60
27978;DHT22;15314;49.248;6.968;2023-04-03T01:29:39;4.30;95.10
27978;DHT22;15314;49.248;6.968;2023-04-03T01:31:07;4.30;95.20
27978;DHT22;15314;49.248;6.968;2023-04-03T01:32:11;4.20;95.10
27978;DHT22;15314;49.248;6.968;2023-04-03T01:33:11;4.20;95.00
27978;DHT22;15314;49.248;6.968;2023-04-03T01:34:12;4.20;95.60
27978;DHT22;15314;49.248;6.968;2023-04-03T01:35:13;4.20;95.50
27978;DHT22;15314;49.248;6.968;2023-04-03T01:36:23;4.20;95.20
27978;DHT22;15314;49.248;6.968;2023-04-03T01:37:24;4.20;95.10
27978;DHT22;15314;49.248;6.968;2023-04-03T01:38:25;4.20;95.30
27978;DHT22;15314;49.248;6.968;2023-04-03T01:39:26;4.20;95.20
27978;DHT22;15314;49.248;6.968;2023-04-03T01:40:27;4.20;95.20
27978;DHT22;15314;49.248;6.968;2023-04-03T01:41:28;4.10;95.40
27978;DHT22;15314;49.248;6.968;2023-04-03T01:42:29;4.20;95.70
27978;DHT22;15314;49.248;6.968;2023-04-03T01:43:29;4.10;95.70
27978;DHT22;15314;49.248;6.968;2023-04-03T01:44:30;4.20;95.80
27978;DHT22;15314;49.248;6.968;2023-04-03T01:45:31;4.10;95.90
27978;DHT22;15314;49.248;6.968;2023-04-03T01:46:31;4.10;95.30
27978;DHT22;15314;49.248;6.968;2023-04-03T01:47:32;4.10;95.40
27978;DHT22;15314;49.248;6.968;2023-04-03T01:48:33;4.10;95.70
27978;DHT22;15314;49.248;6.968;2023-04-03T01:49:34;4.10;95.50
27978;DHT22;15314;49.248;6.968;2023-04-03T01:50:34;4.10;95.50
27978;DHT22;15314;49.248;6.968;2023-04-03T01:51:35;4.10;95.70
27978;DHT22;15314;49.248;6.968;2023-04-03T01:52:36;4.00;95.50
27978;DHT22;15314;49.248;6.968;2023-04-03T01:53:37;4.00;96.10
27978;DHT22;15314;49.248;6.968;2023-04-03T01:54:37;4.00;95.70
27978;DHT22;15314;49.248;6.968;2023-04-03T01:55:38;4.00;96.20
27978;DHT22;15314;49.248;6.968;2023-04-03T01:56:39;4.00;95.90
27978;DHT22;15314;49.248;6.968;2023-04-03T01:57:39;4.00;95.80
27978;DHT22;15314;49.248;6.968;2023-04-03T01:58:40;4.00;96.00
27978;DHT22;15314;49.248;6.968;2023-04-03T01:59:41;4.00;96.00
27978;DHT22;15314;49.248;6.968;2023-04-03T02:00:41;4.00;95.80
27978;DHT22;15314;49.248;6.968;2023-04-03T02:01:42;4.00;95.50
27978;DHT22;15314;49.248;6.968;2023-04-03T02:02:45;4.00;95.80
27978;DHT22;15314;49.248;6.968;2023-04-03T02:03:46;4.00;96.00
27978;DHT22;15314;49.248;6.968;2023-04-03T02:04:46;4.00;95.70
27978;DHT22;15314;49.248;6.968;2023-04-03T02:05:47;3.90;96.10
27978;DHT22;15314;49.248;6.968;2023-04-03T02:06:48;3.90;96.30
27978;DHT22;15314;49.248;6.968;2023-04-03T02:07:48;3.90;96.10
27978;DHT22;15314;49.248;6.968;2023-04-03T02:08:49;3.90;96.40
27978;DHT22;15314;49.248;6.968;2023-04-03T02:09:50;3.90;96.30
27978;DHT22;15314;49.248;6.968;2023-04-03T02:10:51;3.90;96.00
27978;DHT22;15314;49.248;6.968;2023-04-03T02:11:52;3.90;96.20
27978;DHT22;15314;49.248;6.968;2023-04-03T02:12:53;3.90;96.50
27978;DHT22;15314;49.248;6.968;2023-04-03T02:13:54;3.80;96.10
27978;DHT22;15314;49.248;6.968;2023-04-03T02:14:54;3.80;96.50
27978;DHT22;15314;49.248;6.968;2023-04-03T02:15:55;3.80;96.40
27978;DHT22;15314;49.248;6.968;2023-04-03T02:16:56;3.80;96.40
27978;DHT22;15314;49.248;6.968;2023-04-03T02:17:56;3.80;96.00
27978;DHT22;15314;49.248;6.968;2023-04-03T02:18:57;3.80;96.10
27978;DHT22;15314;49.248;6.968;2023-04-03T02:19:58;3.80;96.20
27978;DHT22;15314;49.248;6.968;2023-04-03T02:20:58;3.80;96.30
27978;DHT22;15314;49.248;6.968;2023-04-03T02:21:59;3.80;96.30
27978;DHT22;15314;49.248;6.968;2023-04-03T02:23:00;3.80;96.20
27978;DHT22;15314;49.248;6.968;2023-04-03T02:24:01;3.70;96.50
27978;DHT22;15314;49.248;6.968;2023-04-03T02:25:01;3.70;96.60
27978;DHT22;15314;49.248;6.968;2023-04-03T02:26:11;3.50;96.50
27978;DHT22;15314;49.248;6.968;2023-04-03T02:27:12;3.60;96.60
27978;DHT22;15314;49.248;6.968;2023-04-03T02:28:12;3.60;96.70
27978;DHT22;15314;49.248;6.968;2023-04-03T02:29:13;3.60;96.70
27978;DHT22;15314;49.248;6.968;2023-04-03T02:30:14;3.70;96.40
27978;DHT22;15314;49.248;6.968;2023-04-03T02:31:15;3.60;96.40
27978;DHT22;15314;49.248;6.968;2023-04-03T02:32:15;3.70;96.50
27978;DHT22;15314;49.248;6.968;2023-04-03T02:33:16;3.60;96.80
27978;DHT22;15314;49.248;6.968;2023-04-03T02:34:17;3.60;97.00
27978;DHT22;15314;49.248;6.968;2023-04-03T02:35:18;3.60;96.70
27978;DHT22;15314;49.248;6.968;2023-04-03T02:36:18;3.70;96.70
27978;DHT22;15314;49.248;6.968;2023-04-03T02:37:19;3.60;96.70
27978;DHT22;15314;49.248;6.968;2023-04-03T02:38:20;3.50;96.80
27978;DHT22;15314;49.248;6.968;2023-04-03T02:39:21;3.50;96.90
27978;DHT22;15314;49.248;6.968;2023-04-03T02:40:21;3.50;96.50
27978;DHT22;15314;49.248;6.968;2023-04-03T02:41:22;3.60;96.50
27978;DHT22;15314;49.248;6.968;2023-04-03T02:42:22;3.50;96.50
27978;DHT22;15314;49.248;6.968;2023-04-03T02:43:23;3.50;96.50
27978;DHT22;15314;49.248;6.968;2023-04-03T02:44:24;3.50;96.80
27978;DHT22;15314;49.248;6.968;2023-04-03T02:45:24;3.50;97.10
27978;DHT22;15314;49.248;6.968;2023-04-03T02:46:25;3.50;97.00
27978;DHT22;15314;49.248;6.968;2023-04-03T02:47:27;3.50;97.20
27978;DHT22;15314;49.248;6.968;2023-04-03T02:48:28;3.40;97.20
27978;DHT22;15314;49.248;6.968;2023-04-03T02:49:30;3.40;97.20
27978;DHT22;15314;49.248;6.968;2023-04-03T02:50:30;3.40;97.20
27978;DHT22;15314;49.248;6.968;2023-04-03T02:51:31;3.50;96.90
27978;DHT22;15314;49.248;6.968;2023-04-03T02:52:32;3.40;96.60
27978;DHT22;15314;49.248;6.968;2023-04-03T02:53:32;3.40;96.90
27978;DHT22;15314;49.248;6.968;2023-04-03T02:54:33;3.40;97.10
27978;DHT22;15314;49.248;6.968;2023-04-03T02:55:33;3.60;96.90
27978;DHT22;15314;49.248;6.968;2023-04-03T02:56:34;3.50;96.60
27978;DHT22;15314;49.248;6.968;2023-04-03T02:57:35;3.50;96.70
27978;DHT22;15314;49.248;6.968;2023-04-03T02:58:35;3.50;97.10
27978;DHT22;15314;49.248;6.968;2023-04-03T02:59:37;3.50;96.90
27978;DHT22;15314;49.248;6.968;2023-04-03T03:00:41;3.50;97.20
27978;DHT22;15314;49.248;6.968;2023-04-03T03:01:41;3.40;97.30
27978;DHT22;15314;49.248;6.968;2023-04-03T03:02:42;3.40;97.00
27978;DHT22;15314;49.248;6.968;2023-04-03T03:03:42;3.40;96.70
27978;DHT22;15314;49.248;6.968;2023-04-03T03:04:43;3.40;97.20
27978;DHT22;15314;49.248;6.968;2023-04-03T03:05:44;3.40;97.30
27978;DHT22;15314;49.248;6.968;2023-04-03T03:06:44;3.40;97.50
27978;DHT22;15314;49.248;6.968;2023-04-03T03:07:45;3.40;97.30
27978;DHT22;15314;49.248;6.968;2023-04-03T03:08:45;3.40;97.30
27978;DHT22;15314;49.248;6.968;2023-04-03T03:09:46;3.40;97.20
27978;DHT22;15314;49.248;6.968;2023-04-03T03:10:47;3.40;97.20
27978;DHT22;15314;49.248;6.968;2023-04-03T03:11:47;3.40;97.30
27978;DHT22;15314;49.248;6.968;2023-04-03T03:12:48;3.40;97.40
27978;DHT22;15314;49.248;6.968;2023-04-03T03:13:49;3.40;97.20
27978;DHT22;15314;49.248;6.968;2023-04-03T03:14:50;3.40;97.10
27978;DHT22;15314;49.248;6.968;2023-04-03T03:15:51;3.40;97.20
27978;DHT22;15314;49.248;6.968;2023-04-03T03:16:52;3.30;97.30
27978;DHT22;15314;49.248;6.968;2023-04-03T03:17:52;3.30;97.30
27978;DHT22;15314;49.248;6.968;2023-04-03T03:18:53;3.30;97.40
27978;DHT22;15314;49.248;6.968;2023-04-03T03:19:53;3.30;97.30
27978;DHT22;15314;49.248;6.968;2023-04-03T03:20:56;3.30;97.10
27978;DHT22;15314;49.248;6.968;2023-04-03T03:21:56;3.30;97.40
27978;DHT22;15314;49.248;6.968;2023-04-03T03:22:57;3.40;97.30
27978;DHT22;15314;49.248;6.968;2023-04-03T03:23:58;3.30;97.10
27978;DHT22;15314;49.248;6.968;2023-04-03T03:24:58;3.30;97.10
27978;DHT22;15314;49.248;6.968;2023-04-03T03:26:02;3.30;97.00
27978;DHT22;15314;49.248;6.968;2023-04-03T03:27:03;3.30;97.10
27978;DHT22;15314;49.248;6.968;2023-04-03T03:28:04;3.30;97.10
27978;DHT22;15314;49.248;6.968;2023-04-03T03:29:04;3.30;97.00
27978;DHT22;15314;49.248;6.968;2023-04-03T03:30:05;3.30;96.90
27978;DHT22;15314;49.248;6.968;2023-04-03T03:31:08;3.30;96.60
27978;DHT22;15314;49.248;6.968;2023-04-03T03:32:08;3.30;96.50
27978;DHT22;15314;49.248;6.968;2023-04-03T03:33:09;3.30;96.40
27978;DHT22;15314;49.248;6.968;2023-04-03T03:34:10;3.30;96.40
27978;DHT22;15314;49.248;6.968;2023-04-03T03:35:11;3.40;96.60
27978;DHT22;15314;49.248;6.968;2023-04-03T03:36:11;3.40;96.80
27978;DHT22;15314;49.248;6.968;2023-04-03T03:37:12;3.30;96.60
27978;DHT22;15314;49.248;6.968;2023-04-03T03:38:13;3.30;96.60
27978;DHT22;15314;49.248;6.968;2023-04-03T03:39:13;3.30;96.70
27978;DHT22;15314;49.248;6.968;2023-04-03T03:40:14;3.30;96.70
27978;DHT22;15314;49.248;6.968;2023-04-03T03:41:15;3.30;96.90
27978;DHT22;15314;49.248;6.968;2023-04-03T03:42:16;3.30;97.10
27978;DHT22;15314;49.248;6.968;2023-04-03T03:43:17;3.20;96.70
27978;DHT22;15314;49.248;6.968;2023-04-03T03:44:18;3.20;96.60
27978;DHT22;15314;49.248;6.968;2023-04-03T03:45:19;3.20;96.90
27978;DHT22;15314;49.248;6.968;2023-04-03T03:46:19;3.20;97.10
27978;DHT22;15314;49.248;6.968;2023-04-03T03:47:20;3.20;97.00
27978;DHT22;15314;49.248;6.968;2023-04-03T03:48:22;3.30;97.10
27978;DHT22;15314;49.248;6.968;2023-04-03T03:49:22;3.20;97.00
27978;DHT22;15314;49.248;6.968;2023-04-03T03:50:23;3.10;96.90
27978;DHT22;15314;49.248;6.968;2023-04-03T03:51:24;3.10;97.10
27978;DHT22;15314;49.248;6.968;2023-04-03T03:52:25;3.20;97.10
27978;DHT22;15314;49.248;6.968;2023-04-03T03:53:26;3.10;97.10
27978;DHT22;15314;49.248;6.968;2023-04-03T03:54:27;3.20;97.30
27978;DHT22;15314;49.248;6.968;2023-04-03T03:55:27;3.10;97.40
27978;DHT22;15314;49.248;6.968;2023-04-03T03:56:28;3.10;97.20
27978;DHT22;15314;49.248;6.968;2023-04-03T03:57:29;3.10;97.60
27978;DHT22;15314;49.248;6.968;2023-04-03T03:58:29;3.10;97.90
27978;DHT22;15314;49.248;6.968;2023-04-03T03:59:38;3.10;97.90
27978;DHT22;15314;49.248;6.968;2023-04-03T04:00:41;3.00;97.80
27978;DHT22;15314;49.248;6.968;2023-04-03T04:01:41;3.00;97.80
27978;DHT22;15314;49.248;6.968;2023-04-03T04:02:42;3.00;97.90
27978;DHT22;15314;49.248;6.968;2023-04-03T04:03:43;3.00;97.80
27978;DHT22;15314;49.248;6.968;2023-04-03T04:04:44;3.00;97.80
27978;DHT22;15314;49.248;6.968;2023-04-03T04:05:44;3.00;97.90
27978;DHT22;15314;49.248;6.968;2023-04-03T04:06:45;3.00;97.80
27978;DHT22;15314;49.248;6.968;2023-04-03T04:07:46;3.00;97.60
27978;DHT22;15314;49.248;6.968;2023-04-03T04:08:46;2.90;97.80
27978;DHT22;15314;49.248;6.968;2023-04-03T04:09:47;2.90;97.80
27978;DHT22;15314;49.248;6.968;2023-04-03T04:10:48;2.90;98.00
27978;DHT22;15314;49.248;6.968;2023-04-03T04:11:48;3.00;98.10
27978;DHT22;15314;49.248;6.968;2023-04-03T04:12:49;2.80;98.20
27978;DHT22;15314;49.248;6.968;2023-04-03T04:13:51;2.80;98.20
27978;DHT22;15314;49.248;6.968;2023-04-03T04:14:52;2.80;98.30
27978;DHT22;15314;49.248;6.968;2023-04-03T04:15:52;2.80;98.20
27978;DHT22;15314;49.248;6.968;2023-04-03T04:16:53;2.80;98.20
27978;DHT22;15314;49.248;6.968;2023-04-03T04:17:54;2.80;98.30
27978;DHT22;15314;49.248;6.968;2023-04-03T04:18:54;2.80;98.40
27978;DHT22;15314;49.248;6.968;2023-04-03T04:19:55;2.80;98.40
27978;DHT22;15314;49.248;6.968;2023-04-03T04:20:56;2.70;98.60
27978;DHT22;15314;49.248;6.968;2023-04-03T04:21:57;2.70;98.40
27978;DHT22;15314;49.248;6.968;2023-04-03T04:22:57;2.70;98.60
27978;DHT22;15314;49.248;6.968;2023-04-03T04:23:58;2.60;98.70
27978;DHT22;15314;49.248;6.968;2023-04-03T04:24:59;2.60;99.00
27978;DHT22;15314;49.248;6.968;2023-04-03T04:25:59;2.60;99.40
27978;DHT22;15314;49.248;6.968;2023-04-03T04:27:00;2.50;99.30
27978;DHT22;15314;49.248;6.968;2023-04-03T04:28:01;2.50;99.40
27978;DHT22;15314;49.248;6.968;2023-04-03T04:29:01;2.50;99.50
27978;DHT22;15314;49.248;6.968;2023-04-03T04:30:03;2.50;99.60
27978;DHT22;15314;49.248;6.968;2023-04-03T04:31:03;2.40;99.50
27978;DHT22;15314;49.248;6.968;2023-04-03T04:32:04;2.40;99.80
27978;DHT22;15314;49.248;6.968;2023-04-03T04:33:05;2.40;99.80
27978;DHT22;15314;49.248;6.968;2023-04-03T04:34:06;2.40;99.90
27978;DHT22;15314;49.248;6.968;2023-04-03T04:35:07;2.30;99.80
27978;DHT22;15314;49.248;6.968;2023-04-03T04:36:07;2.40;99.90
27978;DHT22;15314;49.248;6.968;2023-04-03T04:37:08;2.30;99.90
27978;DHT22;15314;49.248;6.968;2023-04-03T04:38:09;2.30;99.80
27978;DHT22;15314;49.248;6.968;2023-04-03T04:39:09;2.30;99.80
27978;DHT22;15314;49.248;6.968;2023-04-03T04:40:10;2.30;99.70
27978;DHT22;15314;49.248;6.968;2023-04-03T04:41:11;2.30;99.90
27978;DHT22;15314;49.248;6.968;2023-04-03T04:42:12;2.30;99.90
27978;DHT22;15314;49.248;6.968;2023-04-03T04:43:13;2.30;99.70
27978;DHT22;15314;49.248;6.968;2023-04-03T04:44:14;2.30;99.50
27978;DHT22;15314;49.248;6.968;2023-04-03T04:45:15;2.30;99.60
27978;DHT22;15314;49.248;6.968;2023-04-03T04:46:16;2.30;99.40
27978;DHT22;15314;49.248;6.968;2023-04-03T04:47:17;2.30;99.60
27978;DHT22;15314;49.248;6.968;2023-04-03T04:48:18;2.30;99.40
27978;DHT22;15314;49.248;6.968;2023-04-03T04:49:19;2.30;99.50
27978;DHT22;15314;49.248;6.968;2023-04-03T04:50:19;2.30;99.40
27978;DHT22;15314;49.248;6.968;2023-04-03T04:51:20;2.30;99.50
27978;DHT22;15314;49.248;6.968;2023-04-03T04:52:20;2.30;99.80
27978;DHT22;15314;49.248;6.968;2023-04-03T04:53:21;2.30;99.70
27978;DHT22;15314;49.248;6.968;2023-04-03T04:54:22;2.30;99.90
27978;DHT22;15314;49.248;6.968;2023-04-03T04:55:22;2.30;99.80
27978;DHT22;15314;49.248;6.968;2023-04-03T04:56:23;2.30;99.60
27978;DHT22;15314;49.248;6.968;2023-04-03T04:57:24;2.30;99.50
27978;DHT22;15314;49.248;6.968;2023-04-03T04:58:25;2.30;99.50
27978;DHT22;15314;49.248;6.968;2023-04-03T04:59:26;2.30;99.40
27978;DHT22;15314;49.248;6.968;2023-04-03T05:00:26;2.30;99.30
27978;DHT22;15314;49.248;6.968;2023-04-03T05:01:27;2.40;99.10
27978;DHT22;15314;49.248;6.968;2023-04-03T05:02:28;2.40;99.40
27978;DHT22;15314;49.248;6.968;2023-04-03T05:03:29;2.40;99.60
27978;DHT22;15314;49.248;6.968;2023-04-03T05:04:29;2.40;99.40
27978;DHT22;15314;49.248;6.968;2023-04-03T05:05:30;2.40;99.30
27978;DHT22;15314;49.248;6.968;2023-04-03T05:06:31;2.40;99.30
27978;DHT22;15314;49.248;6.968;2023-04-03T05:07:32;2.40;99.40
27978;DHT22;15314;49.248;6.968;2023-04-03T05:08:32;2.40;99.10
27978;DHT22;15314;49.248;6.968;2023-04-03T05:09:33;2.40;98.70
27978;DHT22;15314;49.248;6.968;2023-04-03T05:10:34;2.50;99.00
27978;DHT22;15314;49.248;6.968;2023-04-03T05:11:34;2.60;99.00
27978;DHT22;15314;49.248;6.968;2023-04-03T05:12:35;2.50;98.80
27978;DHT22;15314;49.248;6.968;2023-04-03T05:13:36;2.50;98.90
27978;DHT22;15314;49.248;6.968;2023-04-03T05:14:37;2.50;99.00
27978;DHT22;15314;49.248;6.968;2023-04-03T05:15:37;2.50;99.20
27978;DHT22;15314;49.248;6.968;2023-04-03T05:16:38;2.50;99.00
27978;DHT22;15314;49.248;6.968;2023-04-03T05:17:39;2.40;98.70
27978;DHT22;15314;49.248;6.968;2023-04-03T05:18:39;2.40;98.90
27978;DHT22;15314;49.248;6.968;2023-04-03T05:19:40;2.40;98.70
27978;DHT22;15314;49.248;6.968;2023-04-03T05:20:41;2.50;98.60
27978;DHT22;15314;49.248;6.968;2023-04-03T05:21:43;2.50;98.60
27978;DHT22;15314;49.248;6.968;2023-04-03T05:22:44;2.50;98.70
27978;DHT22;15314;49.248;6.968;2023-04-03T05:23:44;2.50;98.80
27978;DHT22;15314;49.248;6.968;2023-04-03T05:24:45;2.60;99.00
27978;DHT22;15314;49.248;6.968;2023-04-03T05:25:46;2.50;98.80
27978;DHT22;15314;49.248;6.968;2023-04-03T05:26:47;2.50;98.80
27978;DHT22;15314;49.248;6.968;2023-04-03T05:27:47;2.60;98.50
27978;DHT22;15314;49.248;6.968;2023-04-03T05:28:48;2.50;98.30
27978;DHT22;15314;49.248;6.968;2023-04-03T05:29:49;2.60;98.50
27978;DHT22;15314;49.248;6.968;2023-04-03T05:30:55;2.60;98.50
27978;DHT22;15314;49.248;6.968;2023-04-03T05:31:56;2.70;98.60
27978;DHT22;15314;49.248;6.968;2023-04-03T05:32:57;2.70;98.60
27978;DHT22;15314;49.248;6.968;2023-04-03T05:33:58;2.80;98.60
27978;DHT22;15314;49.248;6.968;2023-04-03T05:34:59;2.90;98.60
27978;DHT22;15314;49.248;6.968;2023-04-03T05:36:06;2.90;98.10
27978;DHT22;15314;49.248;6.968;2023-04-03T05:37:07;3.00;98.10
27978;DHT22;15314;49.248;6.968;2023-04-03T05:38:08;3.00;98.10
27978;DHT22;15314;49.248;6.968;2023-04-03T05:39:09;3.10;97.80
27978;DHT22;15314;49.248;6.968;2023-04-03T05:40:09;3.10;98.30
27978;DHT22;15314;49.248;6.968;2023-04-03T05:41:10;3.10;97.80
27978;DHT22;15314;49.248;6.968;2023-04-03T05:42:11;3.30;98.00
27978;DHT22;15314;49.248;6.968;2023-04-03T05:43:12;3.40;97.40
27978;DHT22;15314;49.248;6.968;2023-04-03T05:44:12;3.40;97.20
27978;DHT22;15314;49.248;6.968;2023-04-03T05:45:13;3.50;97.40
27978;DHT22;15314;49.248;6.968;2023-04-03T05:46:19;3.60;97.00
27978;DHT22;15314;49.248;6.968;2023-04-03T05:47:20;3.90;96.70
27978;DHT22;15314;49.248;6.968;2023-04-03T05:48:21;4.20;96.40
27978;DHT22;15314;49.248;6.968;2023-04-03T05:49:22;4.40;96.00
27978;DHT22;15314;49.248;6.968;2023-04-03T05:50:22;4.60;95.60
27978;DHT22;15314;49.248;6.968;2023-04-03T05:51:30;5.00;95.70
27978;DHT22;15314;49.248;6.968;2023-04-03T05:52:36;5.10;95.10
27978;DHT22;15314;49.248;6.968;2023-04-03T05:53:37;4.90;94.50
27978;DHT22;15314;49.248;6.968;2023-04-03T05:54:38;4.70;94.70
27978;DHT22;15314;49.248;6.968;2023-04-03T05:55:38;4.70;95.20
27978;DHT22;15314;49.248;6.968;2023-04-03T05:56:39;4.60;95.30
27978;DHT22;15314;49.248;6.968;2023-04-03T05:57:39;4.70;95.30
27978;DHT22;15314;49.248;6.968;2023-04-03T05:58:40;4.90;94.90
27978;DHT22;15314;49.248;6.968;2023-04-03T05:59:41;5.10;94.60
27978;DHT22;15314;49.248;6.968;2023-04-03T06:00:42;5.40;94.30
27978;DHT22;15314;49.248;6.968;2023-04-03T06:01:43;5.90;94.30
27978;DHT22;15314;49.248;6.968;2023-04-03T06:02:44;6.20;93.60
27978;DHT22;15314;49.248;6.968;2023-04-03T06:03:45;6.50;92.80
27978;DHT22;15314;49.248;6.968;2023-04-03T06:04:46;6.70;92.10
27978;DHT22;15314;49.248;6.968;2023-04-03T06:05:47;7.10;91.40
27978;DHT22;15314;49.248;6.968;2023-04-03T06:06:57;7.20;90.60
27978;DHT22;15314;49.248;6.968;2023-04-03T06:07:58;7.30;90.70
27978;DHT22;15314;49.248;6.968;2023-04-03T06:08:59;7.30;90.80
27978;DHT22;15314;49.248;6.968;2023-04-03T06:10:00;7.00;91.10
27978;DHT22;15314;49.248;6.968;2023-04-03T06:11:01;6.90;91.10
27978;DHT22;15314;49.248;6.968;2023-04-03T06:12:02;6.90;91.40
27978;DHT22;15314;49.248;6.968;2023-04-03T06:13:03;7.10;91.20
27978;DHT22;15314;49.248;6.968;2023-04-03T06:14:04;6.90;91.40
27978;DHT22;15314;49.248;6.968;2023-04-03T06:15:05;6.90;91.60
27978;DHT22;15314;49.248;6.968;2023-04-03T06:16:13;6.90;90.80
27978;DHT22;15314;49.248;6.968;2023-04-03T06:17:16;7.00;90.70
27978;DHT22;15314;49.248;6.968;2023-04-03T06:18:18;7.10;90.80
27978;DHT22;15314;49.248;6.968;2023-04-03T06:19:19;7.00;90.30
27978;DHT22;15314;49.248;6.968;2023-04-03T06:20:20;7.20;90.40
27978;DHT22;15314;49.248;6.968;2023-04-03T06:21:21;7.40;90.30
27978;DHT22;15314;49.248;6.968;2023-04-03T06:22:22;7.50;90.10
27978;DHT22;15314;49.248;6.968;2023-04-03T06:23:22;7.50;89.50
27978;DHT22;15314;49.248;6.968;2023-04-03T06:24:23;7.50;90.10
27978;DHT22;15314;49.248;6.968;2023-04-03T06:25:25;7.60;90.30
27978;DHT22;15314;49.248;6.968;2023-04-03T06:26:27;7.70;88.60
27978;DHT22;15314;49.248;6.968;2023-04-03T06:27:27;8.00;88.50
27978;DHT22;15314;49.248;6.968;2023-04-03T06:28:28;8.20;87.40
27978;DHT22;15314;49.248;6.968;2023-04-03T06:29:29;8.50;87.20
27978;DHT22;15314;49.248;6.968;2023-04-03T06:30:30;8.60;87.60
27978;DHT22;15314;49.248;6.968;2023-04-03T06:31:30;9.00;87.70
27978;DHT22;15314;49.248;6.968;2023-04-03T06:32:31;9.20;86.60
27978;DHT22;15314;49.248;6.968;2023-04-03T06:33:31;9.10;84.90
27978;DHT22;15314;49.248;6.968;2023-04-03T06:34:32;9.30;84.90
27978;DHT22;15314;49.248;6.968;2023-04-03T06:35:33;9.10;83.90
27978;DHT22;15314;49.248;6.968;2023-04-03T06:36:35;9.20;84.70
27978;DHT22;15314;49.248;6.968;2023-04-03T06:37:36;9.30;82.90